createdAt,value
2022-10-23T00:00:25.588Z,97.85
2022-10-23T00:01:25.567Z,98.11
2022-10-23T00:02:25.597Z,98.15
2022-10-23T00:03:25.538Z,98.05
2022-10-23T00:04:25.521Z,97.64
2022-10-23T00:05:25.520Z,97.90
2022-10-23T00:06:25.541Z,98.05
2022-10-23T00:07:25.557Z,97.95
2022-10-23T00:08:25.522Z,97.85
2022-10-23T00:09:25.495Z,98.05
2022-10-23T00:10:25.479Z,97.44
2022-10-23T00:11:25.496Z,97.74
2022-10-23T00:12:25.477Z,97.64
2022-10-23T00:13:25.471Z,97.54
2022-10-23T00:14:25.445Z,97.17
2022-10-23T00:15:25.453Z,97.95
2022-10-23T00:16:25.438Z,97.69
2022-10-23T00:17:25.455Z,97.89
2022-10-23T00:18:25.417Z,98.10
2022-10-23T00:19:25.421Z,97.79
2022-10-23T00:20:25.405Z,98.20
2022-10-23T00:21:25.393Z,97.89
2022-10-23T00:22:25.381Z,98.30
2022-10-23T00:23:25.431Z,97.69
2022-10-23T00:24:25.375Z,97.79
2022-10-23T00:25:25.367Z,97.49
2022-10-23T00:26:25.357Z,97.42
2022-10-23T00:27:25.339Z,97.22
2022-10-23T00:28:25.348Z,97.28
2022-10-23T00:29:25.358Z,97.22
2022-10-23T00:30:25.318Z,97.42
2022-10-23T00:31:25.318Z,97.74
2022-10-23T00:32:25.346Z,97.53
2022-10-23T00:33:25.326Z,97.53
2022-10-23T00:34:25.280Z,97.53
2022-10-23T00:35:25.274Z,97.83
2022-10-23T00:36:25.265Z,97.49
2022-10-23T00:37:25.294Z,97.28
2022-10-23T00:38:25.255Z,97.53
2022-10-23T00:39:25.266Z,97.33
2022-10-23T00:40:25.235Z,97.94
2022-10-23T00:41:25.235Z,98.04
2022-10-23T00:42:25.225Z,97.83
2022-10-23T00:43:25.209Z,97.94
2022-10-23T00:44:25.219Z,97.63
2022-10-23T00:45:25.244Z,97.12
2022-10-23T00:46:25.188Z,97.22
2022-10-23T00:47:25.180Z,97.33
2022-10-23T00:48:25.171Z,97.42
2022-10-23T00:49:25.175Z,97.33
2022-10-23T00:50:25.165Z,97.12
2022-10-23T00:51:25.166Z,97.33
2022-10-23T00:52:25.143Z,97.33
2022-10-23T00:53:25.145Z,97.37
2022-10-23T00:54:25.573Z,97.12
2022-10-23T00:55:25.114Z,97.53
2022-10-23T00:56:25.146Z,97.42
2022-10-23T00:57:25.148Z,98.04
2022-10-23T00:58:25.098Z,97.98
2022-10-23T00:59:25.086Z,97.83
2022-10-23T01:00:25.082Z,97.78
2022-10-23T01:01:25.241Z,98.19
2022-10-23T01:02:25.124Z,98.39
2022-10-23T01:03:25.064Z,98.60
2022-10-23T01:04:25.053Z,98.49
2022-10-23T01:05:25.053Z,98.49
2022-10-23T01:06:25.032Z,98.60
2022-10-23T01:07:25.031Z,98.49
2022-10-23T01:08:25.044Z,98.39
2022-10-23T01:09:25.027Z,98.08
2022-10-23T01:10:24.996Z,98.19
2022-10-23T01:11:24.994Z,98.39
2022-10-23T01:12:24.989Z,98.19
2022-10-23T01:13:24.981Z,97.94
2022-10-23T01:14:24.967Z,98.19
2022-10-23T01:15:24.992Z,98.19
2022-10-23T01:16:24.947Z,98.08
2022-10-23T01:17:24.942Z,98.08
2022-10-23T01:18:24.930Z,98.08
2022-10-23T01:19:24.957Z,97.78
2022-10-23T01:20:24.919Z,97.88
2022-10-23T01:21:24.921Z,97.83
2022-10-23T01:23:24.914Z,97.53
2022-10-23T01:24:24.916Z,97.88
2022-10-23T01:25:24.888Z,97.94
2022-10-23T01:26:24.896Z,98.14
2022-10-23T01:27:24.871Z,97.88
2022-10-23T01:28:24.859Z,98.24
2022-10-23T01:29:24.863Z,97.63
2022-10-23T01:30:24.848Z,97.53
2022-10-23T01:31:24.835Z,98.08
2022-10-23T01:32:24.880Z,97.67
2022-10-23T01:33:24.827Z,98.14
2022-10-23T01:34:24.814Z,98.08
2022-10-23T01:35:24.812Z,98.08
2022-10-23T01:36:24.802Z,97.74
2022-10-23T01:37:24.800Z,98.19
2022-10-23T01:38:24.806Z,98.35
2022-10-23T01:39:24.782Z,98.49
2022-10-23T01:40:24.771Z,98.70
2022-10-23T01:41:24.765Z,98.80
2022-10-23T01:42:24.750Z,98.60
2022-10-23T01:43:24.768Z,98.49
2022-10-23T01:44:24.738Z,98.39
2022-10-23T01:45:24.738Z,98.29
2022-10-23T01:46:24.727Z,97.88
2022-10-23T01:47:24.724Z,97.78
2022-10-23T01:48:24.737Z,97.98
2022-10-23T01:49:24.706Z,98.08
2022-10-23T01:50:24.696Z,97.88
2022-10-23T01:51:24.686Z,97.62
2022-10-23T01:52:24.680Z,97.72
2022-10-23T01:53:24.677Z,98.03
2022-10-23T01:54:24.690Z,98.44
2022-10-23T01:55:24.671Z,98.13
2022-10-23T01:56:24.644Z,98.18
2022-10-23T01:57:24.645Z,98.44
2022-10-23T01:58:24.659Z,98.44
2022-10-23T01:59:24.631Z,98.33
2022-10-23T02:00:24.626Z,98.13
2022-10-23T02:01:24.681Z,98.08
2022-10-23T02:02:24.654Z,97.52
2022-10-23T02:03:24.595Z,98.24
2022-10-23T02:04:24.607Z,98.44
2022-10-23T02:05:24.591Z,98.54
2022-10-23T02:06:24.572Z,98.49
2022-10-23T02:07:24.570Z,98.54
2022-10-23T02:08:24.561Z,98.74
2022-10-23T02:09:24.558Z,98.38
2022-10-23T02:10:24.564Z,98.69
2022-10-23T02:11:24.566Z,98.58
2022-10-23T02:12:24.587Z,98.54
2022-10-23T02:13:24.525Z,98.54
2022-10-23T02:14:24.527Z,99.05
2022-10-23T02:15:24.564Z,98.95
2022-10-23T02:16:24.511Z,99.05
2022-10-23T02:17:24.496Z,99.05
2022-10-23T02:18:24.488Z,98.54
2022-10-23T02:19:24.483Z,98.39
2022-10-23T02:20:24.478Z,98.13
2022-10-23T02:21:24.485Z,97.98
2022-10-23T02:22:24.459Z,98.19
2022-10-23T02:23:24.447Z,98.33
2022-10-23T02:24:24.434Z,98.19
2022-10-23T02:25:24.432Z,98.44
2022-10-23T02:26:24.440Z,98.33
2022-10-23T02:27:24.431Z,98.13
2022-10-23T02:28:24.418Z,98.33
2022-10-23T02:29:24.406Z,97.88
2022-10-23T02:30:24.397Z,97.47
2022-10-23T02:31:24.401Z,97.27
2022-10-23T02:32:24.412Z,98.39
2022-10-23T02:33:24.376Z,98.13
2022-10-23T02:34:24.362Z,98.33
2022-10-23T02:35:24.380Z,98.33
2022-10-23T02:36:24.345Z,98.44
2022-10-23T02:37:24.354Z,98.65
2022-10-23T02:38:24.361Z,98.13
2022-10-23T02:39:24.355Z,97.82
2022-10-23T02:40:24.321Z,97.92
2022-10-23T02:41:24.317Z,97.52
2022-10-23T02:42:24.306Z,98.03
2022-10-23T02:43:24.306Z,98.07
2022-10-23T02:44:24.288Z,98.28
2022-10-23T02:45:24.305Z,98.38
2022-10-23T02:46:24.277Z,98.07
2022-10-23T02:47:24.257Z,98.18
2022-10-23T02:48:24.258Z,98.18
2022-10-23T02:49:24.253Z,98.18
2022-10-23T02:50:24.243Z,98.49
2022-10-23T02:51:24.264Z,98.28
2022-10-23T02:52:24.231Z,97.97
2022-10-23T02:53:24.226Z,98.07
2022-10-23T02:54:24.218Z,97.97
2022-10-23T02:55:24.228Z,98.18
2022-10-23T02:56:24.208Z,98.58
2022-10-23T02:57:24.200Z,98.74
2022-10-23T02:58:24.195Z,99.10
2022-10-23T02:59:24.180Z,98.83
2022-10-23T03:00:24.162Z,98.74
2022-10-23T03:01:24.276Z,99.15
2022-10-23T03:02:25.672Z,99.10
2022-10-23T03:03:24.144Z,99.82
2022-10-23T03:04:24.158Z,99.20
2022-10-23T03:05:24.133Z,99.20
2022-10-23T03:06:24.126Z,99.91
2022-10-23T03:07:24.142Z,99.99
2022-10-23T03:08:24.117Z,99.99
2022-10-23T03:09:24.108Z,99.20
2022-10-23T03:10:24.098Z,98.79
2022-10-23T03:11:24.092Z,99.20
2022-10-23T03:12:24.100Z,98.90
2022-10-23T03:13:24.071Z,99.96
2022-10-23T03:14:24.073Z,99.86
2022-10-23T03:15:24.057Z,99.51
2022-10-23T03:16:24.062Z,99.86
2022-10-23T03:17:24.050Z,99.82
2022-10-23T03:18:24.060Z,99.91
2022-10-23T03:19:24.029Z,99.66
2022-10-23T03:20:24.048Z,99.86
2022-10-23T03:21:24.024Z,99.25
2022-10-23T03:22:24.077Z,99.04
2022-10-23T03:23:23.995Z,99.25
2022-10-23T03:24:24.001Z,99.04
2022-10-23T03:25:31.123Z,99.25
2022-10-23T03:26:23.983Z,99.15
2022-10-23T03:27:24.033Z,98.94
2022-10-23T03:28:23.990Z,99.15
2022-10-23T03:29:23.963Z,98.63
2022-10-23T03:30:23.945Z,98.33
2022-10-23T03:31:23.952Z,97.81
2022-10-23T03:32:23.933Z,97.50
2022-10-23T03:33:23.926Z,98.12
2022-10-23T03:34:23.946Z,98.27
2022-10-23T03:35:23.935Z,98.68
2022-10-23T03:36:23.904Z,99.91
2022-10-23T03:37:23.885Z,99.99
2022-10-23T03:38:23.884Z,99.70
2022-10-23T03:39:23.883Z,99.95
2022-10-23T03:40:23.879Z,99.99
2022-10-23T03:41:23.900Z,99.99
2022-10-23T03:42:23.860Z,99.99
2022-10-23T03:43:23.857Z,99.99
2022-10-23T03:44:23.866Z,99.99
2022-10-23T03:45:23.830Z,99.99
2022-10-23T03:46:23.829Z,99.91
2022-10-23T03:47:23.837Z,99.99
2022-10-23T03:48:23.815Z,99.34
2022-10-23T03:49:23.809Z,99.99
2022-10-23T03:50:23.792Z,99.70
2022-10-23T03:51:23.780Z,99.29
2022-10-23T03:53:23.791Z,99.99
2022-10-23T03:54:23.758Z,98.93
2022-10-23T03:55:23.752Z,98.93
2022-10-23T03:56:23.746Z,98.62
2022-10-23T03:57:23.743Z,98.88
2022-10-23T03:58:23.743Z,98.16
2022-10-23T03:59:23.723Z,98.42
2022-10-23T04:00:23.718Z,98.37
2022-10-23T04:01:23.849Z,97.86
2022-10-23T04:02:23.729Z,97.65
2022-10-23T04:03:23.693Z,97.45
2022-10-23T04:04:23.705Z,97.55
2022-10-23T04:05:23.674Z,97.75
2022-10-23T04:06:23.667Z,97.75
2022-10-23T04:07:23.662Z,97.86
2022-10-23T04:08:23.647Z,98.00
2022-10-23T04:09:23.643Z,96.94
2022-10-23T04:10:23.662Z,97.39
2022-10-23T04:11:23.658Z,97.29
2022-10-23T04:12:23.614Z,97.29
2022-10-23T04:13:23.635Z,97.49
2022-10-23T04:14:23.608Z,97.70
2022-10-23T04:15:23.617Z,98.11
2022-10-23T04:16:23.608Z,98.42
2022-10-23T04:17:23.639Z,98.42
2022-10-23T04:18:23.584Z,98.52
2022-10-23T04:19:23.575Z,98.77
2022-10-23T04:20:23.565Z,98.93
2022-10-23T04:21:23.578Z,99.13
2022-10-23T04:22:26.017Z,99.13
2022-10-23T04:23:23.549Z,99.44
2022-10-23T04:24:23.540Z,99.99
2022-10-23T04:25:23.587Z,99.75
2022-10-23T04:26:23.522Z,99.99
2022-10-23T04:27:23.534Z,99.99
2022-10-23T04:28:23.501Z,99.34
2022-10-23T04:29:23.502Z,99.54
2022-10-23T04:30:23.490Z,99.24
2022-10-23T04:31:23.507Z,99.85
2022-10-23T04:32:23.480Z,99.99
2022-10-23T04:33:23.517Z,99.85
2022-10-23T04:34:23.476Z,99.99
2022-10-23T04:35:23.457Z,99.99
2022-10-23T04:36:23.447Z,99.85
2022-10-23T04:37:23.442Z,99.95
2022-10-23T04:38:23.429Z,99.75
2022-10-23T04:39:23.443Z,99.99
2022-10-23T04:40:23.416Z,99.95
2022-10-23T04:41:23.439Z,99.99
2022-10-23T04:42:23.449Z,99.99
2022-10-23T04:43:23.399Z,99.85
2022-10-23T04:44:23.396Z,99.85
2022-10-23T04:45:23.383Z,99.99
2022-10-23T04:46:23.381Z,99.99
2022-10-23T04:47:23.394Z,99.99
2022-10-23T04:48:25.622Z,99.99
2022-10-23T04:49:24.384Z,99.99
2022-10-23T04:50:23.350Z,99.99
2022-10-23T04:51:23.349Z,99.99
2022-10-23T04:52:23.339Z,99.95
2022-10-23T04:53:23.326Z,99.95
2022-10-23T04:54:23.318Z,99.91
2022-10-23T04:55:23.328Z,99.75
2022-10-23T04:56:23.318Z,99.80
2022-10-23T04:57:23.302Z,99.29
2022-10-23T04:58:23.309Z,98.68
2022-10-23T04:59:23.288Z,98.58
2022-10-23T05:00:23.284Z,98.47
2022-10-23T05:01:23.393Z,98.47
2022-10-23T05:02:23.274Z,98.27
2022-10-23T05:03:23.257Z,98.27
2022-10-23T05:04:23.274Z,98.72
2022-10-23T05:05:23.247Z,98.83
2022-10-23T05:06:23.243Z,99.54
2022-10-23T05:07:23.253Z,99.24
2022-10-23T05:08:23.228Z,98.93
2022-10-23T05:09:23.269Z,99.13
2022-10-23T05:10:23.205Z,99.75
2022-10-23T05:11:23.243Z,99.75
2022-10-23T05:12:23.186Z,99.65
2022-10-23T05:13:23.181Z,99.95
2022-10-23T05:14:23.184Z,99.13
2022-10-23T05:15:23.237Z,99.13
2022-10-23T05:16:23.179Z,99.24
2022-10-23T05:17:23.173Z,98.93
2022-10-23T05:18:23.150Z,98.72
2022-10-23T05:19:24.354Z,98.83
2022-10-23T05:20:23.145Z,98.52
2022-10-23T05:21:23.154Z,98.62
2022-10-23T05:22:23.119Z,98.52
2022-10-23T05:23:23.113Z,98.62
2022-10-23T05:24:23.127Z,98.87
2022-10-23T05:25:23.099Z,98.77
2022-10-23T05:26:23.115Z,99.18
2022-10-23T05:27:23.084Z,98.97
2022-10-23T05:28:23.070Z,98.77
2022-10-23T05:29:23.194Z,98.77
2022-10-23T05:30:23.057Z,98.77
2022-10-23T05:31:23.057Z,98.46
2022-10-23T05:32:23.084Z,98.51
2022-10-23T05:33:23.063Z,98.46
2022-10-23T05:34:23.062Z,98.36
2022-10-23T05:35:23.025Z,98.10
2022-10-23T05:36:23.010Z,97.99
2022-10-23T05:37:23.021Z,98.51
2022-10-23T05:38:23.004Z,98.82
2022-10-23T05:39:22.993Z,99.27
2022-10-23T05:40:23.014Z,99.22
2022-10-23T05:41:22.994Z,99.22
2022-10-23T05:42:23.028Z,99.12
2022-10-23T05:43:22.975Z,98.97
2022-10-23T05:44:22.962Z,98.16
2022-10-23T05:45:22.970Z,98.67
2022-10-23T05:46:22.948Z,97.74
2022-10-23T05:47:22.941Z,97.54
2022-10-23T05:48:34.177Z,97.64
2022-10-23T05:49:23.950Z,97.74
2022-10-23T05:50:22.926Z,97.54
2022-10-23T05:51:22.921Z,97.54
2022-10-23T05:52:22.904Z,97.74
2022-10-23T05:53:22.896Z,97.80
2022-10-23T05:54:22.909Z,97.44
2022-10-23T05:55:22.894Z,97.54
2022-10-23T05:56:22.898Z,97.44
2022-10-23T05:57:22.883Z,97.54
2022-10-23T05:58:22.864Z,97.49
2022-10-23T05:59:23.283Z,97.85
2022-10-23T06:00:22.842Z,97.95
2022-10-23T06:01:22.889Z,98.46
2022-10-23T06:02:22.924Z,97.91
2022-10-23T06:03:22.826Z,97.64
2022-10-23T06:04:22.850Z,98.05
2022-10-23T06:05:22.824Z,97.74
2022-10-23T06:06:22.807Z,97.95
2022-10-23T06:07:22.808Z,97.39
2022-10-23T06:08:22.790Z,97.95
2022-10-23T06:09:22.790Z,98.05
2022-10-23T06:10:22.800Z,98.25
2022-10-23T06:11:22.774Z,98.25
2022-10-23T06:12:22.768Z,98.67
2022-10-23T06:13:22.788Z,98.62
2022-10-23T06:14:22.748Z,98.87
2022-10-23T06:15:22.763Z,98.97
2022-10-23T06:16:22.743Z,98.87
2022-10-23T06:17:22.736Z,99.38
2022-10-23T06:18:22.725Z,99.90
2022-10-23T06:19:22.712Z,99.79
2022-10-23T06:20:26.578Z,99.99
2022-10-23T06:21:23.722Z,99.90
2022-10-23T06:22:22.707Z,98.97
2022-10-23T06:23:22.682Z,99.18
2022-10-23T06:24:22.705Z,98.57
2022-10-23T06:25:22.662Z,98.46
2022-10-23T06:26:22.660Z,98.41
2022-10-23T06:27:22.653Z,99.63
2022-10-23T06:28:22.663Z,99.99
2022-10-23T06:29:22.639Z,99.99
2022-10-23T06:30:22.634Z,99.99
2022-10-23T06:31:22.645Z,99.99
2022-10-23T06:32:22.618Z,99.99
2022-10-23T06:33:22.609Z,99.99
2022-10-23T06:34:22.601Z,99.85
2022-10-23T06:35:22.605Z,99.34
2022-10-23T06:36:22.591Z,97.91
2022-10-23T06:37:22.612Z,97.60
2022-10-23T06:38:22.574Z,97.95
2022-10-23T06:39:22.586Z,98.05
2022-10-23T06:40:22.564Z,98.36
2022-10-23T06:41:22.559Z,98.36
2022-10-23T06:42:22.581Z,98.57
2022-10-23T06:43:22.557Z,97.70
2022-10-23T06:44:22.547Z,96.88
2022-10-23T06:45:22.528Z,97.60
2022-10-23T06:46:22.523Z,97.49
2022-10-23T06:47:22.522Z,97.39
2022-10-23T06:48:22.523Z,97.60
2022-10-23T06:49:22.504Z,97.45
2022-10-23T06:50:22.488Z,96.57
2022-10-23T06:51:22.487Z,95.86
2022-10-23T06:52:45.504Z,96.98
2022-10-23T06:53:23.495Z,96.42
2022-10-23T06:54:22.475Z,96.32
2022-10-23T06:55:22.461Z,96.63
2022-10-23T06:56:22.453Z,96.63
2022-10-23T06:57:22.462Z,96.63
2022-10-23T06:58:22.440Z,96.99
2022-10-23T06:59:22.423Z,96.38
2022-10-23T07:00:22.414Z,96.44
2022-10-23T07:01:22.614Z,95.72
2022-10-23T07:02:22.421Z,94.30
2022-10-23T07:03:22.397Z,92.66
2022-10-23T07:04:22.390Z,92.66
2022-10-23T07:05:22.405Z,93.13
2022-10-23T07:06:22.373Z,91.80
2022-10-23T07:07:22.390Z,92.01
2022-10-23T07:08:22.378Z,91.96
2022-10-23T07:09:22.357Z,91.86
2022-10-23T07:10:22.355Z,91.76
2022-10-23T07:11:22.346Z,92.02
2022-10-23T07:12:22.329Z,91.41
2022-10-23T07:13:22.367Z,91.31
2022-10-23T07:14:22.324Z,91.52
2022-10-23T07:15:22.313Z,91.31
2022-10-23T07:16:22.315Z,91.82
2022-10-23T07:17:22.310Z,91.72
2022-10-23T07:18:22.349Z,90.55
2022-10-23T07:19:22.298Z,90.04
2022-10-23T07:20:22.307Z,89.63
2022-10-23T07:21:22.274Z,90.14
2022-10-23T07:22:22.268Z,89.84
2022-10-23T07:23:22.265Z,90.49
2022-10-23T07:24:22.261Z,89.84
2022-10-23T07:25:22.254Z,89.32
2022-10-23T07:26:22.277Z,89.94
2022-10-23T07:27:22.235Z,89.78
2022-10-23T07:28:22.233Z,91.31
2022-10-23T07:29:22.230Z,90.70
2022-10-23T07:30:22.211Z,90.59
2022-10-23T07:31:24.411Z,91.96
2022-10-23T07:32:22.230Z,91.96
2022-10-23T07:33:22.193Z,91.96
2022-10-23T07:34:22.182Z,92.27
2022-10-23T07:35:22.179Z,93.18
2022-10-23T07:36:22.173Z,93.38
2022-10-23T07:37:22.174Z,93.03
2022-10-23T07:38:22.166Z,93.24
2022-10-23T07:39:22.150Z,93.85
2022-10-23T07:40:22.142Z,93.65
2022-10-23T07:41:22.155Z,94.46
2022-10-23T07:42:22.127Z,94.15
2022-10-23T07:43:22.140Z,93.69
2022-10-23T07:44:24.426Z,94.30
2022-10-23T07:45:22.117Z,94.40
2022-10-23T07:46:22.110Z,92.72
2022-10-23T07:47:22.111Z,93.33
2022-10-23T07:48:22.084Z,94.15
2022-10-23T07:49:22.120Z,92.99
2022-10-23T07:50:22.074Z,92.47
2022-10-23T07:51:22.095Z,93.24
2022-10-23T07:52:22.063Z,93.65
2022-10-23T07:53:22.050Z,93.74
2022-10-23T07:54:22.063Z,94.26
2022-10-23T07:55:22.034Z,93.85
2022-10-23T07:56:22.024Z,93.65
2022-10-23T07:57:22.024Z,93.74
2022-10-23T07:58:22.017Z,93.80
2022-10-23T07:59:22.045Z,93.65
2022-10-23T08:00:22.059Z,93.91
2022-10-23T08:01:22.032Z,93.66
2022-10-23T08:02:22.084Z,92.74
2022-10-23T08:03:21.989Z,92.33
2022-10-23T08:04:21.969Z,91.57
2022-10-23T08:05:21.965Z,90.90
2022-10-23T08:06:21.956Z,91.20
2022-10-23T08:07:21.983Z,91.31
2022-10-23T08:08:21.948Z,91.47
2022-10-23T08:09:21.941Z,91.82
2022-10-23T08:10:21.946Z,91.78
2022-10-23T08:11:21.920Z,91.31
2022-10-23T08:12:21.924Z,91.82
2022-10-23T08:13:21.915Z,91.88
2022-10-23T08:14:21.894Z,91.27
2022-10-23T08:15:21.894Z,91.78
2022-10-23T08:16:21.898Z,91.12
2022-10-23T08:17:24.038Z,90.67
2022-10-23T08:18:21.871Z,88.85
2022-10-23T08:19:21.886Z,87.84
2022-10-23T08:20:21.844Z,88.06
2022-10-23T08:21:21.842Z,85.94
2022-10-23T08:22:21.835Z,84.17
2022-10-23T08:23:21.828Z,83.06
2022-10-23T08:24:21.843Z,81.59
2022-10-23T08:25:24.856Z,80.74
2022-10-23T08:26:21.813Z,81.76
2022-10-23T08:27:21.835Z,81.45
2022-10-23T08:28:21.798Z,82.47
2022-10-23T08:29:21.799Z,82.17
2022-10-23T08:30:21.776Z,82.43
2022-10-23T08:31:21.797Z,82.17
2022-10-23T08:32:21.765Z,84.09
2022-10-23T08:33:21.748Z,82.71
2022-10-23T08:34:21.742Z,83.56
2022-10-23T08:35:21.753Z,85.09
2022-10-23T08:36:21.741Z,84.74
2022-10-23T08:37:21.765Z,84.68
2022-10-23T08:38:21.716Z,84.84
2022-10-23T08:39:21.746Z,84.44
2022-10-23T08:40:21.757Z,84.13
2022-10-23T08:41:21.702Z,84.34
2022-10-23T08:42:21.692Z,84.48
2022-10-23T08:43:21.696Z,84.84
2022-10-23T08:44:21.672Z,84.38
2022-10-23T08:45:21.676Z,84.64
2022-10-23T08:46:21.643Z,85.55
2022-10-23T08:47:21.676Z,86.00
2022-10-23T08:48:21.637Z,84.54
2022-10-23T08:49:21.644Z,84.54
2022-10-23T08:50:21.682Z,85.41
2022-10-23T08:51:21.630Z,86.02
2022-10-23T08:52:21.603Z,84.05
2022-10-23T08:53:21.597Z,83.83
2022-10-23T08:54:21.583Z,82.68
2022-10-23T08:55:21.594Z,79.10
2022-10-23T08:56:21.578Z,77.91
2022-10-23T08:57:21.626Z,78.72
2022-10-23T08:58:21.554Z,75.98
2022-10-23T08:59:21.560Z,76.01
2022-10-23T09:00:21.613Z,75.20
2022-10-23T09:01:21.625Z,72.34
2022-10-23T09:02:21.624Z,74.76
2022-10-23T09:03:21.527Z,72.54
2022-10-23T09:04:21.508Z,72.04
2022-10-23T09:05:21.490Z,74.29
2022-10-23T09:06:21.494Z,74.09
2022-10-23T09:07:21.484Z,75.00
2022-10-23T09:08:21.496Z,73.79
2022-10-23T09:09:21.468Z,76.51
2022-10-23T09:10:21.449Z,76.72
2022-10-23T09:11:21.448Z,74.66
2022-10-23T09:12:21.438Z,74.35
2022-10-23T09:13:21.470Z,71.23
2022-10-23T09:14:21.429Z,69.92
2022-10-23T09:15:21.431Z,65.91
2022-10-23T09:16:21.401Z,63.31
2022-10-23T09:17:21.417Z,66.82
2022-10-23T09:18:21.394Z,63.63
2022-10-23T09:19:21.404Z,61.47
2022-10-23T09:20:21.375Z,58.03
2022-10-23T09:21:21.368Z,61.49
2022-10-23T09:22:21.390Z,59.47
2022-10-23T09:23:21.367Z,57.92
2022-10-23T09:24:21.338Z,56.59
2022-10-23T09:25:21.340Z,57.53
2022-10-23T09:26:21.330Z,55.74
2022-10-23T09:27:21.324Z,57.46
2022-10-23T09:28:21.326Z,56.59
2022-10-23T09:29:21.317Z,54.73
2022-10-23T09:30:21.286Z,55.93
2022-10-23T09:31:21.294Z,54.68
2022-10-23T09:32:21.296Z,57.64
2022-10-23T09:33:21.301Z,58.58
2022-10-23T09:34:21.287Z,55.74
2022-10-23T09:35:21.258Z,55.69
2022-10-23T09:36:21.257Z,52.84
2022-10-23T09:37:21.534Z,52.61
2022-10-23T09:38:21.219Z,53.78
2022-10-23T09:39:21.252Z,48.72
2022-10-23T09:40:21.216Z,49.89
2022-10-23T09:41:21.212Z,51.37
2022-10-23T09:42:21.198Z,51.18
2022-10-23T09:43:21.200Z,49.99
2022-10-23T09:44:21.213Z,47.91
2022-10-23T09:45:21.207Z,51.47
2022-10-23T09:46:21.187Z,48.63
2022-10-23T09:47:21.180Z,52.44
2022-10-23T09:48:21.162Z,51.32
2022-10-23T09:49:21.158Z,51.92
2022-10-23T09:50:21.183Z,51.30
2022-10-23T09:51:21.164Z,51.99
2022-10-23T09:52:21.140Z,51.05
2022-10-23T09:53:21.135Z,52.61
2022-10-23T09:54:21.118Z,50.41
2022-10-23T09:55:21.130Z,50.95
2022-10-23T09:56:24.464Z,48.95
2022-10-23T09:57:21.107Z,49.22
2022-10-23T09:58:21.111Z,48.75
2022-10-23T09:59:21.098Z,47.66
2022-10-23T10:00:21.069Z,48.90
2022-10-23T10:01:21.196Z,50.48
2022-10-23T10:02:21.139Z,48.40
2022-10-23T10:03:21.056Z,49.37
2022-10-23T10:04:21.047Z,51.52
2022-10-23T10:05:21.050Z,53.81
2022-10-23T10:06:21.030Z,56.40
2022-10-23T10:07:21.043Z,56.29
2022-10-23T10:08:21.036Z,57.91
2022-10-23T10:09:21.072Z,59.01
2022-10-23T10:10:21.006Z,57.41
2022-10-23T10:11:21.023Z,58.34
2022-10-23T10:12:20.985Z,58.89
2022-10-23T10:13:20.989Z,61.48
2022-10-23T10:14:20.971Z,62.41
2022-10-23T10:15:20.987Z,64.88
2022-10-23T10:16:20.975Z,67.48
2022-10-23T10:17:20.951Z,67.04
2022-10-23T10:18:20.943Z,69.29
2022-10-23T10:19:20.934Z,70.93
2022-10-23T10:20:20.951Z,71.47
2022-10-23T10:21:20.932Z,73.01
2022-10-23T10:22:20.933Z,73.25
2022-10-23T10:23:20.915Z,73.28
2022-10-23T10:24:20.910Z,74.99
2022-10-23T10:25:20.892Z,75.03
2022-10-23T10:26:20.943Z,75.87
2022-10-23T10:27:20.875Z,76.78
2022-10-23T10:28:20.875Z,78.74
2022-10-23T10:29:20.873Z,79.14
2022-10-23T10:30:20.878Z,78.80
2022-10-23T10:31:20.861Z,79.64
2022-10-23T10:32:20.859Z,80.05
2022-10-23T10:33:20.839Z,80.15
2022-10-23T10:34:20.825Z,80.96
2022-10-23T10:35:20.844Z,81.05
2022-10-23T10:36:20.848Z,80.45
2022-10-23T10:37:20.839Z,79.74
2022-10-23T10:38:20.806Z,79.81
2022-10-23T10:39:20.824Z,79.91
2022-10-23T10:40:20.781Z,79.71
2022-10-23T10:41:20.781Z,80.41
2022-10-23T10:42:20.773Z,79.41
2022-10-23T10:43:20.773Z,79.61
2022-10-23T10:44:20.775Z,80.96
2022-10-23T10:45:20.754Z,81.12
2022-10-23T10:46:20.756Z,80.47
2022-10-23T10:47:21.374Z,81.32
2022-10-23T10:48:20.724Z,79.91
2022-10-23T10:49:20.716Z,83.24
2022-10-23T10:50:20.712Z,80.72
2022-10-23T10:51:20.697Z,79.91
2022-10-23T10:52:20.690Z,80.51
2022-10-23T10:53:20.715Z,81.02
2022-10-23T10:54:20.678Z,81.79
2022-10-23T10:55:20.679Z,82.33
2022-10-23T10:56:20.658Z,79.81
2022-10-23T10:57:20.652Z,81.42
2022-10-23T10:58:20.645Z,82.23
2022-10-23T10:59:20.652Z,82.23
2022-10-23T11:00:20.639Z,82.53
2022-10-23T11:01:20.702Z,82.33
2022-10-23T11:02:20.664Z,81.42
2022-10-23T11:03:20.605Z,81.12
2022-10-23T11:04:20.610Z,81.02
2022-10-23T11:05:20.587Z,80.82
2022-10-23T11:06:20.586Z,80.58
2022-10-23T11:07:20.581Z,79.97
2022-10-23T11:08:20.590Z,80.27
2022-10-23T11:09:21.132Z,79.67
2022-10-23T11:10:20.549Z,78.16
2022-10-23T11:11:20.552Z,79.87
2022-10-23T11:12:20.561Z,80.27
2022-10-23T11:13:20.525Z,79.57
2022-10-23T11:14:20.533Z,78.26
2022-10-23T11:15:20.539Z,79.73
2022-10-23T11:16:20.517Z,78.52
2022-10-23T11:17:20.559Z,77.92
2022-10-23T11:18:20.492Z,78.12
2022-10-23T11:19:20.487Z,77.51
2022-10-23T11:20:20.545Z,78.32
2022-10-23T11:21:20.473Z,79.13
2022-10-23T11:22:20.501Z,77.92
2022-10-23T11:23:20.477Z,78.79
2022-10-23T11:24:20.472Z,77.78
2022-10-23T11:25:20.445Z,78.39
2022-10-23T11:26:20.428Z,77.58
2022-10-23T11:27:20.444Z,76.97
2022-10-23T11:28:20.438Z,77.17
2022-10-23T11:29:20.406Z,76.67
2022-10-23T11:30:20.397Z,76.37
2022-10-23T11:31:20.400Z,76.67
2022-10-23T11:32:20.462Z,76.64
2022-10-23T11:33:20.404Z,77.38
2022-10-23T11:34:20.372Z,76.74
2022-10-23T11:35:20.390Z,76.94
2022-10-23T11:36:20.358Z,77.17
2022-10-23T11:37:20.362Z,76.97
2022-10-23T11:38:20.394Z,76.77
2022-10-23T11:39:20.347Z,77.98
2022-10-23T11:40:20.330Z,78.28
2022-10-23T11:41:23.649Z,77.38
2022-10-23T11:42:21.320Z,77.58
2022-10-23T11:43:20.318Z,77.98
2022-10-23T11:44:20.332Z,77.78
2022-10-23T11:45:20.296Z,77.48
2022-10-23T11:46:20.284Z,76.97
2022-10-23T11:47:20.281Z,77.78
2022-10-23T11:48:20.274Z,77.98
2022-10-23T11:49:20.270Z,79.03
2022-10-23T11:50:20.279Z,79.13
2022-10-23T11:51:20.258Z,78.12
2022-10-23T11:52:20.229Z,77.92
2022-10-23T11:53:20.722Z,79.13
2022-10-23T11:54:20.210Z,79.33
2022-10-23T11:55:20.215Z,78.63
2022-10-23T11:56:20.218Z,79.53
2022-10-23T11:57:20.235Z,78.08
2022-10-23T11:58:20.200Z,78.19
2022-10-23T11:59:20.182Z,78.19
2022-10-23T12:00:20.216Z,78.89
2022-10-23T12:01:20.203Z,79.60
2022-10-23T12:02:20.214Z,80.60
2022-10-23T12:03:20.155Z,80.00
2022-10-23T12:04:20.141Z,80.33
2022-10-23T12:05:20.152Z,80.94
2022-10-23T12:06:20.160Z,80.24
2022-10-23T12:07:20.117Z,80.33
2022-10-23T12:08:20.104Z,80.40
2022-10-23T12:09:20.107Z,79.83
2022-10-23T12:10:20.089Z,77.88
2022-10-23T12:11:23.232Z,78.28
2022-10-23T12:12:21.088Z,77.88
2022-10-23T12:13:20.066Z,78.89
2022-10-23T12:14:20.069Z,79.29
2022-10-23T12:15:20.088Z,78.59
2022-10-23T12:16:20.048Z,79.19
2022-10-23T12:17:20.055Z,79.09
2022-10-23T12:18:20.041Z,79.49
2022-10-23T12:19:20.030Z,78.89
2022-10-23T12:20:20.013Z,79.49
2022-10-23T12:21:20.031Z,79.39
2022-10-23T12:22:19.999Z,79.49
2022-10-23T12:23:19.998Z,79.39
2022-10-23T12:24:19.988Z,79.69
2022-10-23T12:25:19.989Z,80.70
2022-10-23T12:26:19.978Z,81.41
2022-10-23T12:27:19.993Z,81.30
2022-10-23T12:28:19.997Z,82.25
2022-10-23T12:29:19.954Z,82.76
2022-10-23T12:30:19.956Z,83.16
2022-10-23T12:31:19.936Z,82.56
2022-10-23T12:32:19.926Z,82.86
2022-10-23T12:33:19.949Z,83.06
2022-10-23T12:34:19.915Z,83.56
2022-10-23T12:35:19.911Z,83.87
2022-10-23T12:36:19.906Z,83.80
2022-10-23T12:37:19.918Z,83.60
2022-10-23T12:38:19.880Z,84.41
2022-10-23T12:39:19.905Z,84.31
2022-10-23T12:40:19.876Z,84.01
2022-10-23T12:41:19.864Z,84.01
2022-10-23T12:42:19.866Z,83.60
2022-10-23T12:43:19.848Z,83.80
2022-10-23T12:44:19.871Z,83.20
2022-10-23T12:45:19.831Z,83.91
2022-10-23T12:46:19.833Z,83.91
2022-10-23T12:47:19.821Z,83.60
2022-10-23T12:48:19.813Z,85.22
2022-10-23T12:49:19.807Z,85.36
2022-10-23T12:50:19.805Z,85.56
2022-10-23T12:51:19.784Z,85.56
2022-10-23T12:52:19.770Z,85.16
2022-10-23T12:53:19.777Z,85.56
2022-10-23T12:54:19.764Z,85.36